createdAt,value
2018-03-16T00:02:03.992Z,97608
2018-03-16T00:04:10.305Z,97613
2018-03-16T00:06:17.208Z,97612
2018-03-16T00:08:23.506Z,97616
2018-03-16T00:10:34.054Z,97612
2018-03-16T00:12:40.598Z,97614
2018-03-16T00:14:46.424Z,97611
2018-03-16T00:16:52.034Z,97611
2018-03-16T00:18:57.332Z,97612
2018-03-16T00:21:02.730Z,97612
2018-03-16T00:23:09.558Z,97613
2018-03-16T00:25:15.236Z,97613
2018-03-16T00:27:20.931Z,97609
2018-03-16T00:29:26.574Z,97616
2018-03-16T00:31:32.744Z,97611
2018-03-16T00:33:38.693Z,97616
2018-03-16T00:35:59.290Z,97618
2018-03-16T00:38:05.172Z,97624
2018-03-16T00:40:10.723Z,97621
2018-03-16T00:42:16.477Z,97622
2018-03-16T00:44:22.853Z,97619
2018-03-16T00:46:32.978Z,97620
2018-03-16T00:48:39.477Z,97627
2018-03-16T00:50:45.872Z,97621
2018-03-16T00:52:51.564Z,97620
2018-03-16T00:54:57.679Z,97621
2018-03-16T00:57:03.731Z,97624
2018-03-16T00:59:09.407Z,97621
2018-03-16T01:01:15.505Z,97619
2018-03-16T01:03:21.322Z,97622
2018-03-16T01:05:27.390Z,97624
2018-03-16T01:07:33.525Z,97620
2018-03-16T01:09:39.445Z,97617
2018-03-16T01:11:45.176Z,97621
2018-03-16T01:13:51.572Z,97626
2018-03-16T01:15:57.448Z,97625
2018-03-16T01:18:03.356Z,97617
2018-03-16T01:20:09.795Z,97616
2018-03-16T01:22:16.292Z,97615
2018-03-16T01:24:22.228Z,97614
2018-03-16T01:26:28.047Z,97616
2018-03-16T01:28:34.334Z,97618
2018-03-16T01:30:40.325Z,97614
2018-03-16T01:32:46.211Z,97612
2018-03-16T01:34:52.488Z,97611
2018-03-16T01:36:58.394Z,97610
2018-03-16T01:39:05.733Z,97611
2018-03-16T01:41:11.946Z,97607
2018-03-16T01:43:17.966Z,97611
2018-03-16T01:45:24.006Z,97606
2018-03-16T01:47:29.861Z,97612
2018-03-16T01:49:36.137Z,97608
2018-03-16T01:51:41.961Z,97609
2018-03-16T01:53:47.924Z,97611
2018-03-16T01:55:54.207Z,97608
2018-03-16T01:58:00.129Z,97612
2018-03-16T02:00:06.292Z,97616
2018-03-16T02:02:12.107Z,97613
2018-03-16T02:04:18.277Z,97612
2018-03-16T02:06:24.314Z,97614
2018-03-16T02:08:30.879Z,97608
2018-03-16T02:10:37.075Z,97609
2018-03-16T02:12:42.375Z,97606
2018-03-16T02:14:48.386Z,97611
2018-03-16T02:16:54.246Z,97603
2018-03-16T02:18:59.841Z,97604
2018-03-16T02:21:05.921Z,97606
2018-03-16T02:23:11.776Z,97612
2018-03-16T02:25:17.552Z,97608
2018-03-16T02:27:23.807Z,97611
2018-03-16T02:29:29.649Z,97608
2018-03-16T02:31:35.714Z,97615
2018-03-16T02:33:42.508Z,97612
2018-03-16T02:35:48.949Z,97612
2018-03-16T02:37:54.179Z,97616
2018-03-16T02:40:00.296Z,97612
2018-03-16T02:42:06.163Z,97613
2018-03-16T02:44:12.330Z,97616
2018-03-16T02:46:18.774Z,97612
2018-03-16T02:48:24.004Z,97608
2018-03-16T02:50:29.294Z,97607
2018-03-16T02:52:34.609Z,97609
2018-03-16T02:54:40.710Z,97604
2018-03-16T02:56:46.815Z,97597
2018-03-16T02:58:52.821Z,97598
2018-03-16T03:00:58.422Z,97592
2018-03-16T03:03:04.286Z,97594
2018-03-16T03:05:10.141Z,97598
2018-03-16T03:07:16.999Z,97600
2018-03-16T03:09:22.884Z,97595
2018-03-16T03:11:28.901Z,97594
2018-03-16T03:13:35.066Z,97597
2018-03-16T03:15:41.099Z,97596
2018-03-16T03:17:46.894Z,97594
2018-03-16T03:19:52.982Z,97596
2018-03-16T03:21:59.422Z,97597
2018-03-16T03:24:05.260Z,97599
2018-03-16T03:26:11.272Z,97592
2018-03-16T03:28:17.361Z,97596
2018-03-16T03:30:23.523Z,97598
2018-03-16T03:32:29.511Z,97593
2018-03-16T03:34:35.107Z,97601
2018-03-16T03:36:41.138Z,97600
2018-03-16T03:38:47.194Z,97599
2018-03-16T03:40:53.552Z,97592
2018-03-16T03:43:00.127Z,97601
2018-03-16T03:45:06.608Z,97609
2018-03-16T03:47:12.374Z,97599
2018-03-16T03:49:17.797Z,97596
2018-03-16T03:51:22.937Z,97597
2018-03-16T03:53:29.365Z,97595
2018-03-16T03:55:35.214Z,97595
2018-03-16T03:57:40.620Z,97598
2018-03-16T03:59:46.511Z,97591
2018-03-16T04:01:53.567Z,97585
2018-03-16T04:03:59.275Z,97597
2018-03-16T04:06:04.737Z,97594
2018-03-16T04:08:10.800Z,97589
2018-03-16T04:10:16.804Z,97593
2018-03-16T04:12:22.498Z,97591
2018-03-16T04:14:28.194Z,97592
2018-03-16T04:16:33.638Z,97591
2018-03-16T04:18:38.839Z,97589
2018-03-16T04:20:44.467Z,97591
2018-03-16T04:22:51.084Z,97590
2018-03-16T04:24:56.440Z,97590
2018-03-16T04:27:02.220Z,97587
2018-03-16T04:29:08.329Z,97590
2018-03-16T04:31:14.163Z,97586
2018-03-16T04:33:19.435Z,97589
2018-03-16T04:35:24.654Z,97595
2018-03-16T04:37:30.310Z,97593
2018-03-16T04:39:36.085Z,97597
2018-03-16T04:41:42.052Z,97593
2018-03-16T04:43:47.491Z,97600
2018-03-16T04:45:54.341Z,97597
2018-03-16T04:47:59.667Z,97600
2018-03-16T04:50:05.132Z,97595
2018-03-16T04:52:10.598Z,97593
2018-03-16T04:54:17.010Z,97605
2018-03-16T04:56:23.154Z,97601
2018-03-16T04:58:28.427Z,97606
2018-03-16T05:00:34.255Z,97610
2018-03-16T05:02:39.951Z,97615
2018-03-16T05:04:45.975Z,97611
2018-03-16T05:06:52.367Z,97607
2018-03-16T05:08:57.607Z,97613
2018-03-16T05:11:03.333Z,97610
2018-03-16T05:13:08.630Z,97605
2018-03-16T05:15:15.116Z,97608
2018-03-16T05:17:21.284Z,97611
2018-03-16T05:19:27.687Z,97614
2018-03-16T05:21:32.964Z,97614
2018-03-16T05:23:38.239Z,97610
2018-03-16T05:25:43.763Z,97613
2018-03-16T05:27:49.659Z,97620
2018-03-16T05:29:55.961Z,97623
2018-03-16T05:32:01.246Z,97614
2018-03-16T05:34:06.809Z,97613
2018-03-16T05:36:12.816Z,97613
2018-03-16T05:38:18.285Z,97611
2018-03-16T05:40:23.913Z,97609
2018-03-16T05:42:29.604Z,97606
2018-03-16T05:44:35.540Z,97609
2018-03-16T05:46:43.119Z,97622
2018-03-16T05:48:48.524Z,97628
2018-03-16T05:50:54.119Z,97629
2018-03-16T05:52:59.781Z,97630
2018-03-16T05:55:10.243Z,97626
2018-03-16T05:57:15.948Z,97630
2018-03-16T05:59:21.592Z,97627
2018-03-16T06:01:27.220Z,97626
2018-03-16T06:03:33.225Z,97631
2018-03-16T06:05:38.776Z,97631
2018-03-16T06:07:49.100Z,97627
2018-03-16T06:09:54.912Z,97631
2018-03-16T06:12:00.504Z,97629
2018-03-16T06:14:05.836Z,97635
2018-03-16T06:16:11.298Z,97632
2018-03-16T06:18:16.955Z,97632
2018-03-16T06:20:22.778Z,97629
2018-03-16T06:22:28.053Z,97627
2018-03-16T06:24:33.636Z,97633
2018-03-16T06:26:38.887Z,97635
2018-03-16T06:28:44.723Z,97636
2018-03-16T06:30:50.305Z,97639
2018-03-16T06:32:55.632Z,97639
2018-03-16T06:35:00.961Z,97639
2018-03-16T06:37:06.513Z,97636
2018-03-16T06:39:11.976Z,97638
2018-03-16T06:41:17.355Z,97638
2018-03-16T06:43:22.933Z,97639
2018-03-16T06:45:28.217Z,97642
2018-03-16T06:47:33.476Z,97644
2018-03-16T06:49:39.875Z,97646
2018-03-16T06:51:45.735Z,97641
2018-03-16T06:53:51.730Z,97640
2018-03-16T06:56:01.180Z,97645
2018-03-16T06:58:06.505Z,97643
2018-03-16T07:00:12.440Z,97648
2018-03-16T07:02:18.040Z,97646
2018-03-16T07:04:23.749Z,97649
2018-03-16T07:06:29.095Z,97645
2018-03-16T07:08:34.833Z,97653
2018-03-16T07:10:40.208Z,97654
2018-03-16T07:12:45.572Z,97654
2018-03-16T07:14:51.679Z,97654
2018-03-16T07:16:56.956Z,97651
2018-03-16T07:19:02.260Z,97657
2018-03-16T07:21:09.072Z,97658
2018-03-16T07:23:14.451Z,97652
2018-03-16T07:25:19.778Z,97661
2018-03-16T07:27:25.407Z,97662
2018-03-16T07:29:30.760Z,97664
2018-03-16T07:31:36.124Z,97662
2018-03-16T07:33:41.734Z,97666
2018-03-16T07:35:46.987Z,97662
2018-03-16T07:37:52.328Z,97658
2018-03-16T07:39:58.668Z,97660
2018-03-16T07:42:04.608Z,97664
2018-03-16T07:44:09.977Z,97665
2018-03-16T07:46:17.092Z,97674
2018-03-16T07:48:22.416Z,97667
2018-03-16T07:50:29.153Z,97670
2018-03-16T07:52:34.787Z,97679
2018-03-16T07:54:40.813Z,97674
2018-03-16T07:56:47.481Z,97676
2018-03-16T07:58:52.767Z,97676
2018-03-16T08:00:59.091Z,97679
2018-03-16T08:03:04.912Z,97684
2018-03-16T08:05:11.341Z,97681
2018-03-16T08:07:17.185Z,97685
2018-03-16T08:09:23.378Z,97682
2018-03-16T08:11:29.158Z,97685
2018-03-16T08:13:35.237Z,97681
2018-03-16T08:15:41.348Z,97683
2018-03-16T08:17:47.952Z,97675
2018-03-16T08:19:53.285Z,97681
2018-03-16T08:21:58.932Z,97678
2018-03-16T08:24:04.425Z,97676
2018-03-16T08:26:10.277Z,97676
2018-03-16T08:28:16.135Z,97674
2018-03-16T08:30:22.022Z,97678
2018-03-16T08:32:27.399Z,97681
2018-03-16T08:34:33.792Z,97679
2018-03-16T08:36:39.803Z,97682
2018-03-16T08:38:45.780Z,97686
2018-03-16T08:40:51.359Z,97684
2018-03-16T08:42:56.745Z,97678
2018-03-16T08:45:02.023Z,97683
2018-03-16T08:47:08.020Z,97687
2018-03-16T08:49:13.955Z,97688
2018-03-16T08:51:19.284Z,97681
2018-03-16T08:53:25.438Z,97681
2018-03-16T08:55:31.600Z,97674
2018-03-16T08:57:36.947Z,97682
2018-03-16T08:59:42.932Z,97678
2018-03-16T09:01:49.083Z,97682
2018-03-16T09:03:54.443Z,97681
2018-03-16T09:06:00.163Z,97682
2018-03-16T09:08:05.596Z,97684
2018-03-16T09:10:11.019Z,97681
2018-03-16T09:12:16.870Z,97683
2018-03-16T09:14:22.680Z,97680
2018-03-16T09:16:28.659Z,97682
2018-03-16T09:18:34.429Z,97682
2018-03-16T09:20:43.903Z,97688
2018-03-16T09:22:49.273Z,97694
2018-03-16T09:24:54.989Z,97696
2018-03-16T09:27:00.343Z,97694
2018-03-16T09:29:05.687Z,97698
2018-03-16T09:31:12.040Z,97700
2018-03-16T09:33:18.205Z,97695
2018-03-16T09:35:23.593Z,97708
2018-03-16T09:37:29.246Z,97702
2018-03-16T09:39:34.560Z,97706
2018-03-16T09:41:40.450Z,97707
2018-03-16T09:43:46.492Z,97704
2018-03-16T09:45:52.658Z,97713
2018-03-16T09:47:58.648Z,97715
2018-03-16T09:50:06.371Z,97714
2018-03-16T09:52:11.776Z,97719
2018-03-16T09:54:17.500Z,97720
2018-03-16T09:56:24.327Z,97723
2018-03-16T09:58:29.592Z,97718
2018-03-16T10:00:34.880Z,97724
2018-03-16T10:02:40.503Z,97712
2018-03-16T10:04:45.786Z,97720
2018-03-16T10:06:51.533Z,97722
2018-03-16T10:08:57.046Z,97723
2018-03-16T10:11:02.416Z,97726
2018-03-16T10:13:07.688Z,97730
2018-03-16T10:15:13.408Z,97724
2018-03-16T10:18:43.304Z,97733
2018-03-16T10:20:49.039Z,97726
2018-03-16T10:22:54.333Z,97718
2018-03-16T10:24:59.712Z,97722
2018-03-16T10:27:06.291Z,97727
2018-03-16T10:29:11.573Z,97725
2018-03-16T10:31:17.195Z,97727
2018-03-16T10:33:23.434Z,97735
2018-03-16T10:35:29.324Z,97741
2018-03-16T10:37:34.764Z,97745
2018-03-16T10:39:40.491Z,97745
2018-03-16T10:41:47.315Z,97746
2018-03-16T10:43:53.124Z,97751
2018-03-16T10:45:58.901Z,97747
2018-03-16T10:48:04.354Z,97754
2018-03-16T10:50:09.643Z,97745
2018-03-16T10:52:15.284Z,97751
2018-03-16T10:54:20.607Z,97747
2018-03-16T10:56:26.064Z,97753
2018-03-16T10:58:31.704Z,97754
2018-03-16T11:00:41.792Z,97759
2018-03-16T11:02:51.047Z,97765
2018-03-16T11:05:00.562Z,97761
2018-03-16T11:07:09.959Z,97763
2018-03-16T11:09:15.300Z,97764
2018-03-16T11:11:21.050Z,97762
2018-03-16T11:13:26.415Z,97772
2018-03-16T11:15:31.665Z,97773
2018-03-16T11:17:37.317Z,97771
2018-03-16T11:19:42.628Z,97773
2018-03-16T11:21:48.360Z,97767
2018-03-16T11:23:54.168Z,97766
2018-03-16T11:25:59.546Z,97772
2018-03-16T11:28:05.396Z,97760
2018-03-16T11:30:11.583Z,97764
2018-03-16T11:32:17.880Z,97765
2018-03-16T11:34:23.306Z,97768
2018-03-16T11:36:29.102Z,97773
2018-03-16T11:38:34.533Z,97783
2018-03-16T11:40:39.816Z,97769
2018-03-16T11:42:46.077Z,97783
2018-03-16T11:44:51.587Z,97783
2018-03-16T11:46:56.877Z,97772
2018-03-16T11:49:03.078Z,97782
2018-03-16T11:51:08.349Z,97781
2018-03-16T11:53:14.146Z,97779
2018-03-16T11:55:19.816Z,97785
2018-03-16T11:57:25.186Z,97781
2018-03-16T11:59:30.455Z,97788
2018-03-16T12:01:36.085Z,97786
2018-03-16T12:03:41.385Z,97784
2018-03-16T12:05:46.691Z,97779
2018-03-16T12:07:52.395Z,97791
2018-03-16T12:09:57.762Z,97795
2018-03-16T12:12:04.084Z,97798
2018-03-16T12:14:09.640Z,97807
2018-03-16T12:16:17.165Z,97807
2018-03-16T12:18:25.097Z,97809
2018-03-16T12:20:31.301Z,97808
2018-03-16T12:22:41.996Z,97814
2018-03-16T12:24:52.514Z,97809
2018-03-16T12:27:09.053Z,97812
2018-03-16T12:29:14.656Z,97815
2018-03-16T12:31:20.035Z,97813
2018-03-16T12:33:25.726Z,97819
2018-03-16T12:35:31.075Z,97818
2018-03-16T12:37:37.225Z,97815
2018-03-16T12:39:44.223Z,97821
2018-03-16T12:41:49.456Z,97822
2018-03-16T12:43:55.390Z,97830
2018-03-16T12:46:01.584Z,97824
2018-03-16T12:48:06.911Z,97831
2018-03-16T12:50:12.256Z,97835
2018-03-16T12:52:17.732Z,97836
2018-03-16T12:54:23.110Z,97835
2018-03-16T12:56:29.093Z,97837
2018-03-16T12:58:35.263Z,97844
2018-03-16T13:00:40.561Z,97846
2018-03-16T13:02:46.051Z,97840
2018-03-16T13:04:51.849Z,97849
2018-03-16T13:06:57.093Z,97848
2018-03-16T13:09:02.456Z,97850
2018-03-16T13:11:08.115Z,97853
2018-03-16T13:13:13.653Z,97848
2018-03-16T13:15:19.105Z,97847
2018-03-16T13:17:25.157Z,97857
2018-03-16T13:19:30.876Z,97855
2018-03-16T13:21:37.291Z,97863
2018-03-16T13:24:06.182Z,97862
2018-03-16T13:26:11.790Z,97860
2018-03-16T13:28:17.731Z,97862
2018-03-16T13:30:23.352Z,97858
2018-03-16T13:32:29.083Z,97867
2018-03-16T13:34:34.759Z,97877
2018-03-16T13:36:40.500Z,97874
2018-03-16T13:38:45.867Z,97876
2018-03-16T13:40:51.167Z,97884
2018-03-16T13:42:56.773Z,97881
2018-03-16T13:45:02.650Z,97881
2018-03-16T13:47:08.049Z,97886
2018-03-16T13:49:13.727Z,97892
2018-03-16T13:51:19.142Z,97888
2018-03-16T13:53:24.539Z,97880
2018-03-16T13:55:30.795Z,97886
2018-03-16T13:57:36.151Z,97888
2018-03-16T13:59:41.620Z,97896
2018-03-16T14:01:47.257Z,97896
2018-03-16T14:03:52.840Z,97904
2018-03-16T14:06:18.183Z,97904
2018-03-16T14:08:24.639Z,97902
2018-03-16T14:10:29.937Z,97907
2018-03-16T14:12:35.396Z,97908
2018-03-16T14:14:41.008Z,97903
2018-03-16T14:16:46.344Z,97908
2018-03-16T14:18:51.611Z,97907
2018-03-16T14:20:57.383Z,97919
2018-03-16T14:23:02.732Z,97912
2018-03-16T14:25:08.042Z,97914
2018-03-16T14:27:13.729Z,97913
2018-03-16T14:29:19.844Z,97926
2018-03-16T14:31:25.461Z,97930
2018-03-16T14:33:34.040Z,97933
2018-03-16T14:37:03.317Z,97933
2018-03-16T14:39:09.484Z,97927
2018-03-16T14:41:15.852Z,97924
2018-03-16T14:43:21.231Z,97930
2018-03-16T14:45:26.926Z,97928
2018-03-16T14:47:33.351Z,97941
2018-03-16T14:49:38.655Z,97937
2018-03-16T14:51:44.598Z,97941
2018-03-16T14:53:49.950Z,97944
2018-03-16T14:55:55.224Z,97950
2018-03-16T14:58:00.870Z,97943
2018-03-16T15:00:07.659Z,97950
2018-03-16T15:02:13.455Z,97953
2018-03-16T15:04:19.789Z,97955
2018-03-16T15:06:25.145Z,97955
2018-03-16T15:08:31.847Z,97954
2018-03-16T15:10:37.783Z,97957
2018-03-16T15:12:43.222Z,97958
2018-03-16T15:14:48.624Z,97963
2018-03-16T15:16:54.374Z,97961
2018-03-16T15:18:59.826Z,97964
2018-03-16T15:21:06.069Z,97967
2018-03-16T15:23:11.820Z,97965
2018-03-16T15:25:17.264Z,97968
2018-03-16T15:27:22.550Z,97969
2018-03-16T15:29:28.407Z,97976
2018-03-16T15:31:33.992Z,97976
2018-03-16T15:33:39.585Z,97968
2018-03-16T15:35:46.232Z,97970
2018-03-16T15:37:52.474Z,97968
2018-03-16T15:39:57.745Z,97977
2018-03-16T15:42:03.647Z,97979
2018-03-16T15:44:09.216Z,97981
2018-03-16T15:46:16.167Z,97988
2018-03-16T15:48:21.858Z,97987
2018-03-16T15:50:27.206Z,97987
2018-03-16T15:52:32.600Z,97986
2018-03-16T15:54:38.263Z,97977
2018-03-16T15:56:43.621Z,97987
2018-03-16T15:58:49.044Z,97990
2018-03-16T16:00:55.063Z,97988
2018-03-16T16:03:00.543Z,97997
2018-03-16T16:05:07.116Z,97997
2018-03-16T16:07:14.095Z,98000
2018-03-16T16:09:19.596Z,97999
2018-03-16T16:11:24.973Z,98016
2018-03-16T16:13:30.893Z,98011
2018-03-16T16:15:36.488Z,98020
2018-03-16T16:17:41.869Z,98027
2018-03-16T16:19:47.843Z,98027
2018-03-16T16:21:53.985Z,98031
2018-03-16T16:23:59.506Z,98031
2018-03-16T16:26:05.042Z,98033
2018-03-16T16:28:10.536Z,98035
2018-03-16T16:30:16.160Z,98037
2018-03-16T16:32:21.846Z,98036
2018-03-16T16:34:27.259Z,98038
2018-03-16T16:36:33.650Z,98043
2018-03-16T16:38:45.999Z,98043
2018-03-16T16:40:51.769Z,98049
2018-03-16T16:42:57.120Z,98048
2018-03-16T16:45:03.002Z,98053
2018-03-16T16:47:08.437Z,98060
2018-03-16T16:49:13.890Z,98065
2018-03-16T16:51:19.557Z,98066
2018-03-16T16:53:25.062Z,98072
2018-03-16T16:55:30.483Z,98081
2018-03-16T16:57:36.290Z,98082
2018-03-16T16:59:41.684Z,98081
2018-03-16T17:01:47.284Z,98082
2018-03-16T17:03:53.295Z,98091
2018-03-16T17:05:58.669Z,98095
2018-03-16T17:08:04.212Z,98097
2018-03-16T17:10:10.434Z,98101
2018-03-16T17:12:15.960Z,98105
2018-03-16T17:14:21.312Z,98109
2018-03-16T17:16:26.945Z,98107
2018-03-16T17:18:32.853Z,98115
2018-03-16T17:20:38.222Z,98112
2018-03-16T17:22:43.975Z,98111
2018-03-16T17:24:49.513Z,98115
2018-03-16T17:26:54.949Z,98118
2018-03-16T17:29:00.646Z,98121
2018-03-16T17:31:06.651Z,98131
2018-03-16T17:33:12.338Z,98137
2018-03-16T17:35:17.990Z,98136
2018-03-16T17:37:23.396Z,98142
2018-03-16T17:39:29.038Z,98142
2018-03-16T17:41:37.067Z,98136
2018-03-16T17:43:42.688Z,98139
2018-03-16T17:45:48.310Z,98143
2018-03-16T17:47:54.269Z,98145
2018-03-16T17:50:00.858Z,98150
2018-03-16T17:52:06.471Z,98154
2018-03-16T17:54:12.183Z,98148
2018-03-16T17:56:17.730Z,98155
2018-03-16T17:58:23.121Z,98153
2018-03-16T18:00:29.672Z,98157
2018-03-16T18:02:35.112Z,98157
2018-03-16T18:04:40.471Z,98162
2018-03-16T18:06:46.121Z,98160
2018-03-16T18:08:51.508Z,98169
2018-03-16T18:10:56.794Z,98172
2018-03-16T18:13:02.949Z,98178
2018-03-16T18:15:08.780Z,98172
2018-03-16T18:17:14.220Z,98174
2018-03-16T18:19:20.221Z,98173
2018-03-16T18:21:25.684Z,98176
2018-03-16T18:23:31.265Z,98175
2018-03-16T18:25:36.980Z,98174
2018-03-16T18:27:42.294Z,98182
2018-03-16T18:29:47.752Z,98182
2018-03-16T18:31:53.344Z,98184
2018-03-16T18:33:58.689Z,98180
2018-03-16T18:36:04.087Z,98183
2018-03-16T18:38:09.863Z,98173
2018-03-16T18:40:15.276Z,98177
2018-03-16T18:42:21.602Z,98175
2018-03-16T18:44:27.317Z,98181
2018-03-16T18:46:32.691Z,98181
2018-03-16T18:48:38.262Z,98192
2018-03-16T18:50:44.046Z,98191
2018-03-16T18:52:49.611Z,98188
2018-03-16T18:54:54.933Z,98190
2018-03-16T18:57:00.626Z,98184
2018-03-16T18:59:06.075Z,98189
2018-03-16T19:01:11.920Z,98197
2018-03-16T19:04:41.420Z,98196
2018-03-16T19:06:46.844Z,98198
2018-03-16T19:08:52.538Z,98200
2018-03-16T19:10:58.781Z,98204
2018-03-16T19:13:05.147Z,98202
2018-03-16T19:15:12.301Z,98199
2018-03-16T19:17:17.839Z,98197
2018-03-16T19:19:23.195Z,98194
2018-03-16T19:21:28.924Z,98198
2018-03-16T19:23:34.197Z,98195
2018-03-16T19:25:39.507Z,98212
2018-03-16T19:27:45.215Z,98199
2018-03-16T19:29:50.518Z,98208
2018-03-16T19:31:55.941Z,98217
2018-03-16T19:34:01.918Z,98217
2018-03-16T19:36:08.327Z,98219
2018-03-16T19:38:13.748Z,98226
2018-03-16T19:40:19.766Z,98222
2018-03-16T19:42:25.516Z,98226
2018-03-16T19:44:30.834Z,98224
2018-03-16T19:46:36.552Z,98231
2018-03-16T19:48:41.900Z,98223
2018-03-16T19:50:47.296Z,98222
2018-03-16T19:52:52.948Z,98226
2018-03-16T19:54:58.293Z,98226
2018-03-16T19:57:03.803Z,98229
2018-03-16T19:59:09.553Z,98224
2018-03-16T20:01:15.285Z,98226
2018-03-16T20:03:21.398Z,98226
2018-03-16T20:05:27.058Z,98235
2018-03-16T20:07:32.510Z,98229
2018-03-16T20:09:37.988Z,98233
2018-03-16T20:11:43.810Z,98225
2018-03-16T20:13:49.609Z,98228
2018-03-16T20:15:54.981Z,98224
2018-03-16T20:18:00.589Z,98222
2018-03-16T20:20:06.432Z,98224
2018-03-16T20:22:11.736Z,98222
2018-03-16T20:24:17.276Z,98225
2018-03-16T20:26:23.954Z,98216
2018-03-16T20:28:29.425Z,98223
2018-03-16T20:30:35.161Z,98222
2018-03-16T20:32:41.717Z,98223
2018-03-16T20:34:47.866Z,98221
2018-03-16T20:36:53.856Z,98224
2018-03-16T20:38:59.268Z,98229
2018-03-16T20:41:05.046Z,98231
2018-03-16T20:43:10.957Z,98233
2018-03-16T20:45:16.316Z,98237
2018-03-16T20:47:21.644Z,98242
2018-03-16T20:49:27.924Z,98246
2018-03-16T20:51:33.459Z,98243
2018-03-16T20:53:38.813Z,98247
2018-03-16T20:55:44.356Z,98245
2018-03-16T20:57:49.927Z,98253
2018-03-16T20:59:55.189Z,98246
2018-03-16T21:02:01.055Z,98240
2018-03-16T21:04:06.438Z,98242
2018-03-16T21:06:12.664Z,98244
2018-03-16T21:08:18.232Z,98251
2018-03-16T21:10:23.575Z,98245
2018-03-16T21:12:28.853Z,98245
2018-03-16T21:14:34.510Z,98248
2018-03-16T21:16:39.881Z,98253
2018-03-16T21:18:45.327Z,98253
2018-03-16T21:20:51.543Z,98255
2018-03-16T21:22:56.840Z,98256
2018-03-16T21:25:02.226Z,98259
2018-03-16T21:27:08.165Z,98266
2018-03-16T21:29:13.421Z,98273
2018-03-16T21:31:19.933Z,98269
2018-03-16T21:33:25.610Z,98276
2018-03-16T21:35:31.171Z,98278
2018-03-16T21:37:36.889Z,98282
2018-03-16T21:39:42.689Z,98275
2018-03-16T21:41:48.537Z,98279
2018-03-16T21:43:53.910Z,98274
2018-03-16T21:45:59.826Z,98278
2018-03-16T21:48:05.298Z,98270
2018-03-16T21:50:10.747Z,98274
2018-03-16T21:52:16.537Z,98269
2018-03-16T21:54:22.175Z,98261
2018-03-16T21:56:27.648Z,98265
2018-03-16T21:58:33.510Z,98260
2018-03-16T22:00:39.086Z,98254
2018-03-16T22:02:44.824Z,98271
2018-03-16T22:04:50.521Z,98268
2018-03-16T22:06:56.025Z,98273
2018-03-16T22:09:01.560Z,98275
2018-03-16T22:11:07.281Z,98277
2018-03-16T22:13:16.549Z,98267
2018-03-16T22:15:22.087Z,98280
2018-03-16T22:17:28.024Z,98275
2018-03-16T22:19:33.809Z,98277
2018-03-16T22:21:39.271Z,98280
2018-03-16T22:23:45.037Z,98277
2018-03-16T22:25:50.627Z,98278
2018-03-16T22:27:56.054Z,98273
2018-03-16T22:30:01.798Z,98273
2018-03-16T22:32:07.207Z,98270
2018-03-16T22:34:12.489Z,98277
2018-03-16T22:36:18.800Z,98275
2018-03-16T22:38:24.300Z,98273
2018-03-16T22:42:40.086Z,98276
2018-03-16T22:44:45.472Z,98278
2018-03-16T22:46:50.977Z,98279
2018-03-16T22:48:56.632Z,98282
2018-03-16T22:51:01.910Z,98286
2018-03-16T22:53:07.964Z,98284
2018-03-16T22:55:13.572Z,98284
2018-03-16T22:57:19.124Z,98282
2018-03-16T22:59:24.543Z,98286
2018-03-16T23:01:32.125Z,98280
2018-03-16T23:03:38.129Z,98277
2018-03-16T23:05:44.112Z,98274
2018-03-16T23:07:50.079Z,98283
2018-03-16T23:10:03.192Z,98285
2018-03-16T23:12:08.650Z,98280
2018-03-16T23:14:14.723Z,98285
2018-03-16T23:16:20.118Z,98282
2018-03-16T23:18:25.464Z,98281
2018-03-16T23:20:31.387Z,98275
2018-03-16T23:22:37.864Z,98274
2018-03-16T23:24:43.112Z,98270
2018-03-16T23:26:48.906Z,98268
2018-03-16T23:28:54.402Z,98268
2018-03-16T23:30:59.809Z,98267
2018-03-16T23:33:06.795Z,98271
2018-03-16T23:35:12.984Z,98259
2018-03-16T23:37:18.607Z,98267
2018-03-16T23:39:24.850Z,98264
2018-03-16T23:41:30.251Z,98270
2018-03-16T23:43:38.858Z,98269
2018-03-16T23:45:44.539Z,98257
2018-03-16T23:47:50.032Z,98252
2018-03-16T23:49:55.372Z,98256
2018-03-16T23:52:05.948Z,98261
2018-03-16T23:54:11.557Z,98263
2018-03-16T23:56:17.112Z,98264
2018-03-16T23:58:22.728Z,98247
